Time;durP1;ratioP1;P1;durP2;ratioP2;P2;SDS_P1;SDS_P2;PMS_P1;PMS_P2;Temp;Humidity;BMP_temperature;BMP_pressure;BME280_temperature;BME280_humidity;BME280_pressure;Samples;Min_cycle;Max_cycle;Signal;HPM_P1;HPM_P2
2024/01/08 00:01:17;;;;;;;2.45;1.65;;;-1.10;99.90;;;;;;7363096;32;20509;-55
2024/01/08 00:05:19;;;;;;;2.72;1.25;;;-1.20;99.90;;;;;;7355995;32;20206;-55
2024/01/08 00:09:21;;;;;;;3.05;1.40;;;-1.20;99.90;;;;;;7360457;32;20131;-54
2024/01/08 00:13:23;;;;;;;2.40;1.40;;;-1.20;99.90;;;;;;7363071;32;20165;-54
2024/01/08 00:17:24;;;;;;;2.12;1.27;;;-1.20;99.90;;;;;;7363640;32;20594;-55
2024/01/08 00:21:27;;;;;;;3.05;1.67;;;-1.20;99.90;;;;;;7361338;32;20113;-55
2024/01/08 00:25:28;;;;;;;5.18;1.85;;;-1.20;99.90;;;;;;7361508;32;20123;-55
2024/01/08 00:29:30;;;;;;;2.58;1.60;;;-1.10;99.90;;;;;;7359674;32;20154;-55
2024/01/08 00:33:32;;;;;;;3.42;1.70;;;-1.10;99.90;;;;;;7360731;32;20224;-55
2024/01/08 00:37:35;;;;;;;4.97;2.50;;;-1.00;99.90;;;;;;7357386;32;20115;-56
2024/01/08 00:41:37;;;;;;;6.40;2.50;;;-1.10;99.90;;;;;;7362443;32;20524;-56
2024/01/08 00:45:39;;;;;;;5.50;2.55;;;-1.20;99.90;;;;;;7360558;32;20192;-55
2024/01/08 00:49:40;;;;;;;4.60;2.78;;;-1.20;99.90;;;;;;7365175;32;20155;-54
2024/01/08 00:53:42;;;;;;;6.00;3.17;;;-1.20;99.90;;;;;;7361419;32;20334;-55
2024/01/08 00:57:44;;;;;;;4.85;3.10;;;-1.20;99.90;;;;;;7357571;32;20107;-55
2024/01/08 01:01:46;;;;;;;5.80;3.75;;;-1.20;99.90;;;;;;7369347;32;20535;-54
2024/01/08 01:05:47;;;;;;;7.22;3.85;;;-1.20;99.90;;;;;;7353672;32;20127;-54
2024/01/08 01:09:49;;;;;;;7.50;3.20;;;-1.10;99.90;;;;;;7359898;32;20127;-54
2024/01/08 01:13:51;;;;;;;6.72;3.47;;;-1.20;99.90;;;;;;7363933;32;20509;-54
2024/01/08 01:17:53;;;;;;;6.72;3.58;;;-1.20;99.90;;;;;;7363412;32;20908;-54
2024/01/08 01:21:56;;;;;;;6.70;4.18;;;-1.30;99.90;;;;;;7362325;32;20157;-54
2024/01/08 01:25:58;;;;;;;7.75;4.00;;;-1.30;99.90;;;;;;7361946;32;20107;-55
2024/01/08 01:29:59;;;;;;;6.45;3.67;;;-1.30;99.90;;;;;;7366931;32;20130;-54
2024/01/08 01:34:01;;;;;;;7.70;4.10;;;-1.40;99.90;;;;;;7367132;32;20110;-56
2024/01/08 01:38:03;;;;;;;6.37;4.22;;;-1.30;99.90;;;;;;7368780;32;20570;-54
2024/01/08 01:42:05;;;;;;;5.97;4.00;;;-1.40;99.90;;;;;;7360153;32;20107;-54
2024/01/08 01:46:27;;;;;;;6.62;3.92;;;-1.50;99.90;;;;;;7357710;32;20129;-54
2024/01/08 01:50:29;;;;;;;8.05;4.20;;;-1.50;99.90;;;;;;7364462;32;20103;-54
2024/01/08 01:54:32;;;;;;;7.35;3.83;;;-1.60;99.90;;;;;;7368861;32;20940;-54
2024/01/08 01:58:34;;;;;;;7.72;4.25;;;-1.70;99.90;;;;;;7358891;32;20129;-54
2024/01/08 02:02:37;;;;;;;6.62;4.55;;;-1.60;99.90;;;;;;7361590;32;20572;-54
2024/01/08 02:06:40;;;;;;;7.03;4.35;;;-1.50;99.90;;;;;;7360420;32;20122;-54
2024/01/08 02:10:42;;;;;;;6.03;3.92;;;-1.60;99.90;;;;;;7360728;32;20576;-54
2024/01/08 02:14:44;;;;;;;7.40;4.78;;;-1.80;99.90;;;;;;7364634;32;20569;-54
2024/01/08 02:18:46;;;;;;;8.40;4.90;;;-1.80;99.90;;;;;;7368140;32;20118;-54
2024/01/08 02:22:48;;;;;;;8.40;4.70;;;-1.90;99.90;;;;;;7358803;32;20121;-54
2024/01/08 02:26:50;;;;;;;9.27;5.35;;;-1.90;99.90;;;;;;7361141;32;20108;-55
2024/01/08 02:30:52;;;;;;;7.82;4.85;;;-1.80;99.90;;;;;;7363345;32;20198;-54
2024/01/08 02:34:55;;;;;;;8.25;4.93;;;-1.80;99.90;;;;;;7360252;32;20207;-54
2024/01/08 02:38:56;;;;;;;8.68;4.32;;;-1.80;99.90;;;;;;7358180;32;20129;-55
2024/01/08 02:42:58;;;;;;;9.15;4.97;;;-1.80;99.90;;;;;;7359781;32;20241;-54
2024/01/08 02:47:01;;;;;;;8.85;5.20;;;-1.70;99.90;;;;;;7363246;32;20135;-54
2024/01/08 02:51:03;;;;;;;6.07;4.40;;;-1.70;99.90;;;;;;7368428;32;20198;-54
2024/01/08 02:55:05;;;;;;;9.30;5.07;;;-1.70;99.90;;;;;;7345405;32;20104;-55
2024/01/08 02:59:07;;;;;;;6.10;4.20;;;-1.80;99.90;;;;;;7357643;32;20117;-54
2024/01/08 03:03:09;;;;;;;6.65;4.40;;;-1.80;99.90;;;;;;7368280;32;20107;-54
2024/01/08 03:07:15;;;;;;;6.45;4.32;;;-1.70;99.90;;;;;;7360084;32;20152;-54
2024/01/08 03:11:16;;;;;;;8.02;4.87;;;-1.80;99.90;;;;;;7362267;32;20478;-54
2024/01/08 03:15:18;;;;;;;9.02;4.87;;;-1.70;99.90;;;;;;7355426;32;20409;-54
2024/01/08 03:19:20;;;;;;;8.65;4.60;;;-1.90;99.90;;;;;;7353879;32;20191;-54
2024/01/08 03:23:22;;;;;;;7.65;5.00;;;-1.80;99.90;;;;;;7361445;32;20225;-55
2024/01/08 03:27:24;;;;;;;8.27;5.00;;;-1.80;99.90;;;;;;7356951;32;20149;-54
2024/01/08 03:31:26;;;;;;;7.28;5.00;;;-1.80;99.90;;;;;;7371125;32;20590;-54
2024/01/08 03:35:28;;;;;;;10.90;5.45;;;-1.80;99.90;;;;;;7362340;32;20537;-54
2024/01/08 03:39:30;;;;;;;8.07;5.10;;;-1.80;99.90;;;;;;7359269;32;20155;-54
2024/01/08 03:43:32;;;;;;;8.07;5.55;;;-1.70;99.90;;;;;;7366001;32;20191;-55
2024/01/08 03:47:34;;;;;;;9.30;5.07;;;-1.60;99.90;;;;;;7360697;32;20198;-54
2024/01/08 03:51:36;;;;;;;9.32;5.18;;;-1.50;99.90;;;;;;7358843;32;20502;-55
2024/01/08 03:55:38;;;;;;;7.37;4.90;;;-1.50;99.90;;;;;;7352112;32;20111;-55
2024/01/08 03:59:42;;;;;;;8.35;5.50;;;-1.40;99.90;;;;;;7356974;32;20693;-54
2024/01/08 04:03:44;;;;;;;7.22;4.72;;;-1.30;99.90;;;;;;7356227;32;20142;-54
2024/01/08 04:07:46;;;;;;;6.95;5.15;;;-1.40;99.90;;;;;;7356038;32;20106;-54
2024/01/08 04:11:47;;;;;;;10.25;5.12;;;-1.40;99.90;;;;;;7353512;32;20110;-54
2024/01/08 04:15:49;;;;;;;11.45;5.47;;;-1.40;99.90;;;;;;7359050;32;20493;-54
2024/01/08 04:19:51;;;;;;;10.90;5.32;;;-1.40;99.90;;;;;;7364418;32;20143;-54
2024/01/08 04:23:53;;;;;;;7.75;4.78;;;-1.40;99.90;;;;;;7357498;32;20464;-55
2024/01/08 04:27:55;;;;;;;9.70;5.70;;;-1.40;99.90;;;;;;7359391;32;20634;-54
2024/01/08 04:31:57;;;;;;;10.90;5.55;;;-1.40;99.90;;;;;;7364114;32;20107;-55
2024/01/08 04:35:58;;;;;;;8.82;5.30;;;-1.50;99.90;;;;;;7369264;32;20588;-55
2024/01/08 04:40:00;;;;;;;9.77;5.93;;;-1.50;99.90;;;;;;7363791;32;20122;-54
2024/01/08 04:44:02;;;;;;;8.88;5.93;;;-1.50;99.90;;;;;;7350482;32;20129;-54
2024/01/08 04:48:04;;;;;;;8.88;5.78;;;-1.50;99.90;;;;;;7355050;32;20281;-54
2024/01/08 04:52:06;;;;;;;12.35;6.70;;;-1.40;99.90;;;;;;7366258;32;20124;-55
2024/01/08 04:56:19;;;;;;;11.02;5.93;;;-1.60;99.90;;;;;;7361546;32;20111;-54
2024/01/08 05:00:22;;;;;;;10.80;5.57;;;-1.50;99.90;;;;;;7367253;32;20571;-54
2024/01/08 05:04:23;;;;;;;11.60;6.00;;;-1.50;99.90;;;;;;7364050;32;20549;-55
2024/01/08 05:08:25;;;;;;;13.75;6.00;;;-1.40;99.90;;;;;;7362110;32;20630;-55
2024/01/08 05:12:27;;;;;;;9.88;6.22;;;-1.40;99.90;;;;;;7350356;32;20121;-54
2024/01/08 05:16:29;;;;;;;10.93;6.32;;;-1.40;99.90;;;;;;7366385;32;20524;-55
2024/01/08 05:20:31;;;;;;;11.05;6.12;;;-1.50;99.90;;;;;;7363277;32;20552;-54
2024/01/08 05:24:33;;;;;;;9.45;5.47;;;-1.40;99.90;;;;;;7355779;32;20240;-55
2024/01/08 05:28:34;;;;;;;13.65;7.45;;;-1.50;99.90;;;;;;7355004;32;20818;-55
2024/01/08 05:32:36;;;;;;;10.57;5.78;;;-1.50;99.90;;;;;;7356346;32;20136;-54
2024/01/08 05:36:41;;;;;;;9.55;5.78;;;-1.50;99.90;;;;;;7353814;32;20103;-54
2024/01/08 05:40:43;;;;;;;10.60;6.28;;;-1.50;99.90;;;;;;7353307;32;20207;-54
2024/01/08 05:44:45;;;;;;;9.90;5.90;;;-1.50;99.90;;;;;;7369418;32;20325;-54
2024/01/08 05:48:47;;;;;;;9.13;5.87;;;-1.50;99.90;;;;;;7363175;32;20107;-53
2024/01/08 05:52:48;;;;;;;9.27;5.90;;;-1.40;99.90;;;;;;7361649;32;20833;-53
2024/01/08 05:56:50;;;;;;;10.77;6.25;;;-1.60;99.90;;;;;;7364417;32;20488;-54
2024/01/08 06:00:53;;;;;;;10.57;6.37;;;-1.60;99.90;;;;;;7364463;32;20424;-54
2024/01/08 06:04:55;;;;;;;10.02;6.15;;;-1.50;99.90;;;;;;7365079;32;20284;-55
2024/01/08 06:08:57;;;;;;;11.23;6.47;;;-1.50;99.90;;;;;;7353729;32;20233;-54
2024/01/08 06:13:00;;;;;;;9.95;5.90;;;-1.50;99.90;;;;;;7368652;32;20127;-54
2024/01/08 06:17:02;;;;;;;9.73;5.47;;;-1.60;99.90;;;;;;7367224;32;20102;-55
2024/01/08 06:21:05;;;;;;;9.15;5.80;;;-1.60;99.90;;;;;;7366726;32;20482;-55
2024/01/08 06:25:07;;;;;;;8.50;5.57;;;-1.50;99.90;;;;;;7368336;32;20718;-54
2024/01/08 06:29:11;;;;;;;10.85;6.15;;;-1.60;99.90;;;;;;7368598;32;20324;-54
2024/01/08 06:33:13;;;;;;;10.30;5.28;;;-1.50;99.90;;;;;;7360064;32;20107;-54
2024/01/08 06:37:15;;;;;;;8.77;5.22;;;-1.30;99.90;;;;;;7363161;32;20336;-54
2024/01/08 06:41:16;;;;;;;8.93;5.37;;;-1.40;99.90;;;;;;7369758;32;20107;-54
2024/01/08 06:45:18;;;;;;;10.85;6.15;;;-1.40;99.90;;;;;;7363992;32;20132;-54
2024/01/08 06:49:20;;;;;;;13.65;7.37;;;-1.40;99.90;;;;;;7366621;32;20099;-55
2024/01/08 06:53:22;;;;;;;9.15;5.85;;;-1.40;99.90;;;;;;7364277;32;20422;-54
2024/01/08 06:57:24;;;;;;;11.05;6.50;;;-1.30;99.90;;;;;;7366072;32;20711;-54
2024/01/08 07:01:26;;;;;;;8.65;5.50;;;-1.30;99.90;;;;;;7364309;32;20208;-55
2024/01/08 07:05:28;;;;;;;8.85;5.53;;;-1.40;99.90;;;;;;7361027;32;20166;-54
2024/01/08 07:09:30;;;;;;;17.75;10.65;;;-1.50;99.90;;;;;;7361256;32;20137;-55
2024/01/08 07:13:31;;;;;;;9.88;5.60;;;-1.40;99.90;;;;;;7360883;32;20414;-54
2024/01/08 07:17:33;;;;;;;14.55;7.47;;;-1.40;99.90;;;;;;7363513;32;20135;-55
2024/01/08 07:21:35;;;;;;;8.65;5.65;;;-1.30;99.90;;;;;;7363090;32;20137;-54
2024/01/08 07:25:39;;;;;;;10.15;5.57;;;-1.50;99.90;;;;;;7364475;32;20115;-54
2024/01/08 07:29:40;;;;;;;8.90;4.82;;;-1.50;99.90;;;;;;7368332;32;20657;-54
2024/01/08 07:33:42;;;;;;;8.65;4.93;;;-1.50;99.90;;;;;;7364710;32;20121;-54
2024/01/08 07:37:45;;;;;;;7.43;4.82;;;-1.50;99.90;;;;;;7360696;32;20104;-55
2024/01/08 07:41:49;;;;;;;7.82;4.45;;;-1.40;99.90;;;;;;7366478;32;20107;-55
2024/01/08 07:45:51;;;;;;;11.15;4.70;;;-1.40;99.90;;;;;;7363659;32;20115;-54
2024/01/08 07:49:54;;;;;;;8.18;4.87;;;-1.30;99.90;;;;;;7365769;32;20107;-56
2024/01/08 07:53:56;;;;;;;7.50;4.30;;;-1.30;99.90;;;;;;7336631;32;20265;-55
2024/01/08 07:57:58;;;;;;;8.85;5.12;;;-1.20;99.90;;;;;;7364301;32;20179;-56
2024/01/08 08:02:00;;;;;;;9.65;4.70;;;-1.20;99.90;;;;;;7353330;32;20311;-56
2024/01/08 08:06:02;;;;;;;11.50;4.97;;;-1.20;99.90;;;;;;7356705;32;20164;-56
2024/01/08 08:10:04;;;;;;;8.10;5.12;;;-1.20;99.90;;;;;;7366702;32;20131;-55
2024/01/08 08:14:06;;;;;;;9.90;5.12;;;-1.30;99.90;;;;;;7365593;32;20178;-56
2024/01/08 08:18:08;;;;;;;8.40;5.40;;;-1.20;99.90;;;;;;7360247;32;20172;-56
2024/01/08 08:22:14;;;;;;;9.55;5.47;;;-1.00;99.90;;;;;;7361476;32;20314;-56
2024/01/08 08:26:16;;;;;;;10.32;5.55;;;-1.10;99.90;;;;;;7358275;32;20123;-56
2024/01/08 08:30:22;;;;;;;10.10;5.37;;;-1.20;99.90;;;;;;7368199;32;20112;-56
2024/01/08 08:34:24;;;;;;;8.38;5.12;;;-1.20;99.90;;;;;;7357879;32;20099;-55
2024/01/08 08:38:31;;;;;;;8.23;5.75;;;-1.20;99.90;;;;;;7356650;32;20789;-56
2024/01/08 08:42:33;;;;;;;9.75;5.75;;;-1.30;99.90;;;;;;7359353;32;20134;-56
2024/01/08 08:46:35;;;;;;;10.60;6.18;;;-1.20;99.90;;;;;;7358238;32;20782;-55
2024/01/08 08:50:38;;;;;;;8.60;5.15;;;-1.20;99.90;;;;;;7364750;32;20226;-56
2024/01/08 08:54:40;;;;;;;8.57;5.35;;;-1.10;99.90;;;;;;7357389;32;20122;-55
2024/01/08 08:58:41;;;;;;;9.90;5.70;;;-1.10;99.90;;;;;;7358737;32;20103;-55
2024/01/08 09:02:43;;;;;;;11.05;5.72;;;-1.10;99.90;;;;;;7361440;32;20127;-54
2024/01/08 09:06:45;;;;;;;10.43;5.93;;;-1.20;99.90;;;;;;7366777;32;20234;-55
2024/01/08 09:10:48;;;;;;;10.40;6.50;;;-1.20;99.90;;;;;;7364805;32;20154;-55
2024/01/08 09:14:50;;;;;;;10.27;5.87;;;-1.10;99.90;;;;;;7354565;32;20111;-56
2024/01/08 09:18:52;;;;;;;9.55;5.78;;;-1.10;99.90;;;;;;7358691;32;20272;-56
2024/01/08 09:22:53;;;;;;;9.75;6.12;;;-1.10;99.90;;;;;;7366487;32;20142;-55
2024/01/08 09:26:55;;;;;;;9.85;6.15;;;-1.20;99.90;;;;;;7362995;32;20099;-56
2024/01/08 09:30:59;;;;;;;9.60;5.68;;;-1.20;99.90;;;;;;7358851;32;20099;-56
2024/01/08 09:35:01;;;;;;;10.80;6.70;;;-1.20;99.90;;;;;;7364809;32;20818;-56
2024/01/08 09:39:03;;;;;;;10.50;5.78;;;-1.20;99.90;;;;;;7366571;32;20209;-55
2024/01/08 09:43:09;;;;;;;9.75;5.10;;;-1.20;99.90;;;;;;7367557;32;20256;-56
2024/01/08 09:47:12;;;;;;;8.97;4.67;;;-1.00;99.90;;;;;;7369213;32;20182;-56
2024/01/08 09:51:14;;;;;;;7.68;4.68;;;-1.00;99.90;;;;;;7362234;32;20258;-55
2024/01/08 09:55:16;;;;;;;6.28;3.85;;;-1.00;99.90;;;;;;7357798;32;20266;-56
2024/01/08 09:59:18;;;;;;;6.53;3.92;;;-0.90;99.90;;;;;;7360912;32;20148;-56
2024/01/08 10:03:20;;;;;;;5.25;2.78;;;-0.90;99.90;;;;;;7365315;32;20257;-56
2024/01/08 10:07:24;;;;;;;7.55;2.97;;;-1.00;99.90;;;;;;7355111;32;20565;-56
2024/01/08 10:11:26;;;;;;;5.32;2.90;;;-1.10;99.90;;;;;;7361800;32;20520;-56
2024/01/08 10:15:31;;;;;;;5.65;2.70;;;-1.10;99.90;;;;;;7364431;32;20111;-56
2024/01/08 10:19:33;;;;;;;5.20;2.72;;;-1.40;99.90;;;;;;7366620;32;20756;-56
2024/01/08 10:23:35;;;;;;;7.65;2.72;;;-1.40;99.90;;;;;;7371844;32;20124;-56
2024/01/08 10:27:38;;;;;;;3.12;2.00;;;-1.30;99.90;;;;;;7364026;32;20613;-56
2024/01/08 10:31:40;;;;;;;5.50;2.70;;;-1.30;99.90;;;;;;7371228;32;21364;-56
2024/01/08 10:35:42;;;;;;;4.45;2.28;;;-1.20;99.90;;;;;;7363289;32;20121;-55
2024/01/08 10:39:47;;;;;;;4.70;2.12;;;-1.40;99.90;;;;;;7362369;32;20142;-56
2024/01/08 10:43:52;;;;;;;4.57;2.10;;;-1.40;99.90;;;;;;7371779;32;20468;-56
2024/01/08 10:48:18;;;;;;;4.57;2.45;;;-1.40;99.90;;;;;;7360834;32;22296;-55
2024/01/08 10:52:29;;;;;;;3.83;2.03;;;-1.60;99.90;;;;;;7355363;32;20245;-56
2024/01/08 10:56:57;;;;;;;5.18;2.33;;;-1.60;99.90;;;;;;7368719;32;20232;-56
2024/01/08 11:01:00;;;;;;;4.18;1.98;;;-1.70;99.90;;;;;;7363195;32;20269;-55
2024/01/08 11:05:05;;;;;;;5.82;2.62;;;-1.70;99.90;;;;;;7367333;32;20236;-56
2024/01/08 11:09:24;;;;;;;3.70;2.33;;;-1.70;99.90;;;;;;7358830;32;20207;-55
2024/01/08 11:13:25;;;;;;;3.85;1.87;;;-1.50;99.90;;;;;;7369053;32;20568;-55
2024/01/08 11:17:28;;;;;;;6.72;2.50;;;-1.60;99.90;;;;;;7360158;32;20664;-55
2024/01/08 11:21:33;;;;;;;4.47;2.58;;;-1.60;99.90;;;;;;7360391;32;20198;-55
2024/01/08 11:25:37;;;;;;;6.12;2.12;;;-1.60;99.90;;;;;;7370034;32;20266;-55
2024/01/08 11:29:38;;;;;;;6.65;2.75;;;-1.60;99.90;;;;;;7362107;32;20111;-55
2024/01/08 11:33:46;;;;;;;4.07;2.50;;;-1.60;99.90;;;;;;7365727;32;20121;-56
2024/01/08 11:38:28;;;;;;;3.20;1.60;;;-1.50;99.90;;;;;;7360583;32;20202;-56
2024/01/08 11:42:31;;;;;;;4.55;2.53;;;-1.40;99.90;;;;;;7363402;32;20295;-56
2024/01/08 11:46:34;;;;;;;4.82;2.60;;;-1.50;99.90;;;;;;7362818;32;20739;-55
2024/01/08 11:50:39;;;;;;;4.57;2.40;;;-1.60;99.90;;;;;;7361549;32;20119;-55
2024/01/08 11:54:41;;;;;;;3.83;2.20;;;-1.60;99.90;;;;;;7357838;32;20675;-54
2024/01/08 11:58:49;;;;;;;4.45;2.65;;;-1.50;99.90;;;;;;7359813;32;20168;-55
2024/01/08 12:03:01;;;;;;;5.40;2.50;;;-1.50;99.90;;;;;;7361029;32;20224;-56
2024/01/08 12:07:03;;;;;;;5.75;2.35;;;-1.40;99.90;;;;;;7361089;32;20129;-55
2024/01/08 12:11:05;;;;;;;5.50;2.85;;;-1.30;99.90;;;;;;7356026;32;20119;-55
2024/01/08 12:15:08;;;;;;;4.28;2.30;;;-1.40;99.90;;;;;;7359952;32;20233;-55
2024/01/08 12:19:12;;;;;;;4.85;2.30;;;-1.50;99.90;;;;;;7362156;32;20282;-55
2024/01/08 12:23:15;;;;;;;4.68;2.20;;;-1.50;99.90;;;;;;7351055;32;20146;-55
2024/01/08 12:27:18;;;;;;;3.08;1.92;;;-1.50;99.90;;;;;;7357943;32;20135;-55
2024/01/08 12:31:22;;;;;;;4.95;2.22;;;-1.50;99.90;;;;;;7353740;32;20411;-55
2024/01/08 12:35:24;;;;;;;3.67;2.20;;;-1.70;99.90;;;;;;7348700;32;21410;-56
2024/01/08 12:39:33;;;;;;;5.10;2.60;;;-1.70;99.90;;;;;;7362528;32;20214;-56
2024/01/08 12:43:36;;;;;;;3.67;1.98;;;-1.70;99.90;;;;;;7365557;32;20107;-57
2024/01/08 12:47:38;;;;;;;3.20;1.90;;;-1.60;99.90;;;;;;7357389;32;20137;-55
2024/01/08 12:51:40;;;;;;;3.83;2.03;;;-1.50;99.90;;;;;;7363605;32;20581;-55
2024/01/08 12:55:42;;;;;;;4.97;2.65;;;-1.50;99.90;;;;;;7361131;32;20174;-55
2024/01/08 12:59:54;;;;;;;5.20;2.50;;;-1.60;99.90;;;;;;7361228;32;20130;-55
2024/01/08 13:03:56;;;;;;;3.58;2.00;;;-1.70;99.90;;;;;;7361561;32;20100;-57
2024/01/08 13:07:58;;;;;;;4.15;2.35;;;-1.60;99.90;;;;;;7354366;32;20508;-55
2024/01/08 13:12:01;;;;;;;6.07;2.37;;;-1.70;99.90;;;;;;7359429;32;20111;-56
2024/01/08 13:16:04;;;;;;;4.20;2.20;;;-1.70;99.90;;;;;;7362582;32;20211;-56
2024/01/08 13:20:08;;;;;;;4.32;2.20;;;-1.60;99.90;;;;;;7365406;32;20181;-56
2024/01/08 13:24:26;;;;;;;4.80;2.12;;;-1.60;99.90;;;;;;7365056;32;20670;-57
2024/01/08 13:28:28;;;;;;;4.03;2.12;;;-1.60;99.90;;;;;;7363642;32;20123;-56
2024/01/08 13:32:30;;;;;;;4.18;1.83;;;-1.60;99.90;;;;;;7369658;32;20128;-56
2024/01/08 13:36:32;;;;;;;4.35;2.67;;;-1.60;99.90;;;;;;7362116;32;20232;-56
2024/01/08 13:40:34;;;;;;;4.75;2.20;;;-1.60;99.90;;;;;;7369975;32;20107;-57
2024/01/08 13:44:36;;;;;;;4.80;2.10;;;-1.50;99.90;;;;;;7361208;32;20118;-57
2024/01/08 13:48:39;;;;;;;6.35;2.35;;;-1.30;99.90;;;;;;7358983;32;20585;-56
2024/01/08 13:52:42;;;;;;;5.95;2.47;;;-1.40;99.90;;;;;;7370334;32;20156;-56
2024/01/08 13:56:43;;;;;;;5.37;2.28;;;-1.60;99.90;;;;;;7364295;32;20923;-56
2024/01/08 14:00:47;;;;;;;2.85;1.70;;;-1.70;99.90;;;;;;7363407;32;20609;-57
2024/01/08 14:04:48;;;;;;;6.50;3.08;;;-1.70;99.90;;;;;;7362398;32;20534;-57
2024/01/08 14:08:50;;;;;;;7.00;2.30;;;-1.70;99.90;;;;;;7360404;32;20116;-57
2024/01/08 14:12:52;;;;;;;3.65;2.12;;;-1.70;99.90;;;;;;7362212;32;20133;-57
2024/01/08 14:16:54;;;;;;;3.87;1.67;;;-1.70;99.90;;;;;;7359041;32;20204;-57
2024/01/08 14:20:56;;;;;;;5.37;3.22;;;-1.80;99.90;;;;;;7358590;32;20123;-57
2024/01/08 14:24:58;;;;;;;6.47;2.55;;;-1.80;99.90;;;;;;7365168;32;20100;-56
2024/01/08 14:28:59;;;;;;;5.62;2.67;;;-1.70;99.90;;;;;;7358841;32;20099;-57
2024/01/08 14:33:01;;;;;;;4.18;2.03;;;-1.80;99.90;;;;;;7363438;32;20289;-56
2024/01/08 14:37:03;;;;;;;4.82;2.37;;;-1.90;99.90;;;;;;7359537;32;20135;-57
2024/01/08 14:41:05;;;;;;;4.45;1.92;;;-1.90;99.90;;;;;;7366792;32;20106;-56
2024/01/08 14:45:08;;;;;;;3.75;1.98;;;-2.00;99.90;;;;;;7362010;32;20295;-56
2024/01/08 14:49:09;;;;;;;3.42;2.03;;;-2.00;99.90;;;;;;7364511;32;20145;-57
2024/01/08 14:53:12;;;;;;;5.78;2.97;;;-2.00;99.90;;;;;;7362656;32;20111;-57
2024/01/08 14:57:14;;;;;;;7.62;2.80;;;-2.00;99.90;;;;;;7365748;32;20153;-57
2024/01/08 15:01:16;;;;;;;4.55;2.47;;;-2.00;99.90;;;;;;7360629;32;20208;-58
2024/01/08 15:05:18;;;;;;;5.25;2.72;;;-2.10;99.90;;;;;;7359700;32;20209;-56
2024/01/08 15:09:20;;;;;;;5.28;2.37;;;-2.10;99.90;;;;;;7362675;32;20174;-57
2024/01/08 15:13:22;;;;;;;3.33;1.98;;;-2.10;99.90;;;;;;7353799;32;20198;-58
2024/01/08 15:17:24;;;;;;;4.72;2.50;;;-2.20;99.90;;;;;;7364318;32;20115;-57
2024/01/08 15:21:26;;;;;;;3.50;1.85;;;-2.20;99.90;;;;;;7364013;32;20102;-57
2024/01/08 15:25:28;;;;;;;8.23;2.60;;;-2.20;99.90;;;;;;7359351;32;20186;-56
2024/01/08 15:29:29;;;;;;;4.20;1.80;;;-2.30;99.90;;;;;;7359526;32;20197;-58
2024/01/08 15:33:32;;;;;;;4.43;2.03;;;-2.30;99.90;;;;;;7357876;32;20206;-56
2024/01/08 15:37:34;;;;;;;5.32;2.22;;;-2.40;99.90;;;;;;7367386;32;20266;-57
2024/01/08 15:41:36;;;;;;;5.62;2.65;;;-2.40;99.90;;;;;;7359587;32;20115;-57
2024/01/08 15:45:38;;;;;;;4.72;2.67;;;-2.40;99.90;;;;;;7360889;32;20107;-57
2024/01/08 15:49:39;;;;;;;5.32;2.55;;;-2.50;99.90;;;;;;7360524;32;20128;-57
2024/01/08 15:53:41;;;;;;;6.60;2.37;;;-2.50;99.90;;;;;;7364368;32;20165;-57
2024/01/08 15:57:43;;;;;;;6.93;2.67;;;-2.50;99.90;;;;;;7363340;32;20107;-58
2024/01/08 16:01:45;;;;;;;4.70;2.67;;;-2.60;99.90;;;;;;7368500;32;20209;-56
2024/01/08 16:05:47;;;;;;;6.03;2.25;;;-2.60;99.90;;;;;;7355922;32;20127;-56
2024/01/08 16:09:49;;;;;;;2.97;1.90;;;-2.70;99.90;;;;;;7361231;32;20217;-56
2024/01/08 16:13:52;;;;;;;3.40;2.17;;;-2.70;99.90;;;;;;7360713;32;20245;-58
2024/01/08 16:17:53;;;;;;;4.70;2.60;;;-2.70;99.90;;;;;;7369657;32;20628;-56
2024/01/08 16:21:55;;;;;;;2.72;1.80;;;-2.70;99.90;;;;;;7360607;32;20253;-57
2024/01/08 16:25:57;;;;;;;4.78;2.53;;;-2.70;99.90;;;;;;7364600;32;20185;-59
2024/01/08 16:29:59;;;;;;;7.93;2.72;;;-2.80;99.90;;;;;;7352609;32;21376;-58
2024/01/08 16:34:01;;;;;;;5.37;2.35;;;-2.80;99.90;;;;;;7361212;32;20118;-54
2024/01/08 16:38:03;;;;;;;4.18;2.03;;;-2.90;99.90;;;;;;7365213;32;20204;-55
2024/01/08 16:42:05;;;;;;;6.47;3.20;;;-2.90;99.90;;;;;;7360884;32;20130;-56
2024/01/08 16:46:07;;;;;;;5.45;2.70;;;-2.90;99.90;;;;;;7360669;32;20218;-57
2024/01/08 16:50:09;;;;;;;5.47;2.62;;;-2.90;99.90;;;;;;7367715;32;20760;-56
2024/01/08 16:54:11;;;;;;;6.25;2.70;;;-2.90;99.90;;;;;;7368910;32;20103;-57
2024/01/08 16:58:12;;;;;;;6.87;2.72;;;-2.90;99.90;;;;;;7365159;32;20115;-57
2024/01/08 17:02:14;;;;;;;4.75;2.55;;;-3.00;99.90;;;;;;7369542;32;20167;-57
2024/01/08 17:06:18;;;;;;;5.55;2.47;;;-3.00;99.90;;;;;;7365789;32;20519;-58
2024/01/08 17:10:20;;;;;;;3.22;1.95;;;-3.00;99.90;;;;;;7362790;32;20205;-57
2024/01/08 17:14:22;;;;;;;5.12;2.50;;;-3.00;99.90;;;;;;7367238;32;20607;-56
2024/01/08 17:18:25;;;;;;;4.40;2.25;;;-3.00;99.90;;;;;;7360175;32;20217;-58
2024/01/08 17:22:27;;;;;;;4.70;2.80;;;-3.10;99.90;;;;;;7372333;32;20171;-56
2024/01/08 17:26:29;;;;;;;6.53;2.65;;;-3.10;99.90;;;;;;7359631;32;20250;-55
2024/01/08 17:30:31;;;;;;;7.75;3.00;;;-3.10;99.90;;;;;;7365309;32;20134;-56
2024/01/08 17:34:33;;;;;;;6.40;2.70;;;-3.10;99.90;;;;;;7366566;32;20253;-56
2024/01/08 17:38:35;;;;;;;6.60;2.90;;;-3.10;99.90;;;;;;7370649;32;20198;-63
2024/01/08 17:42:36;;;;;;;5.82;3.05;;;-3.00;99.90;;;;;;7369600;32;21426;-57
2024/01/08 17:46:39;;;;;;;7.32;3.08;;;-3.10;99.90;;;;;;7364409;32;20107;-57
2024/01/08 17:50:40;;;;;;;5.37;2.75;;;-3.10;99.90;;;;;;7367609;32;20496;-56
2024/01/08 17:54:42;;;;;;;5.37;2.45;;;-3.10;99.90;;;;;;7364828;32;20119;-55
2024/01/08 17:58:44;;;;;;;6.68;2.95;;;-3.20;99.90;;;;;;7366701;32;20119;-56
2024/01/08 18:02:46;;;;;;;6.12;3.00;;;-3.20;99.90;;;;;;7368300;32;20126;-56
2024/01/08 18:06:48;;;;;;;4.72;2.47;;;-3.20;99.90;;;;;;7362259;32;20175;-58
2024/01/08 18:10:50;;;;;;;4.62;2.50;;;-3.20;99.90;;;;;;7352666;32;20265;-56
2024/01/08 18:14:52;;;;;;;6.15;3.20;;;-3.20;99.90;;;;;;7367845;32;20662;-56
2024/01/08 18:18:55;;;;;;;5.70;3.08;;;-3.30;99.90;;;;;;7364469;32;20238;-57
2024/01/08 18:22:57;;;;;;;5.57;2.78;;;-3.30;99.90;;;;;;7363448;32;20106;-55
2024/01/08 18:27:03;;;;;;;5.62;3.00;;;-3.30;99.90;;;;;;7365374;32;20586;-55
2024/01/08 18:31:05;;;;;;;;;;;-3.30;99.90;;;;;;7364923;32;20248;-56
2024/01/08 18:35:07;;;;;;;9.30;4.03;;;-3.30;99.90;;;;;;7365486;32;20034;-56
2024/01/08 18:39:11;;;;;;;7.30;3.10;;;-3.30;99.90;;;;;;7358102;32;20186;-55
2024/01/08 18:43:13;;;;;;;4.47;2.80;;;-3.40;99.90;;;;;;7363757;32;20099;-56
2024/01/08 18:47:16;;;;;;;5.40;2.72;;;-3.40;99.90;;;;;;7364209;32;20510;-57
2024/01/08 18:51:18;;;;;;;8.40;3.03;;;-3.40;99.90;;;;;;7361578;32;20708;-56
2024/01/08 18:55:19;;;;;;;6.82;3.40;;;-3.40;99.90;;;;;;7357357;32;20185;-55
2024/01/08 18:59:21;;;;;;;5.28;2.58;;;-3.50;99.90;;;;;;7358531;32;20532;-55
2024/01/08 19:03:23;;;;;;;6.22;3.28;;;-3.50;99.90;;;;;;7365559;32;20123;-54
2024/01/08 19:07:25;;;;;;;6.57;2.90;;;-3.50;99.90;;;;;;7362717;32;20096;-55
2024/01/08 19:11:26;;;;;;;5.57;2.83;;;-3.60;99.90;;;;;;7361030;32;20160;-55
2024/01/08 19:15:28;;;;;;;7.45;3.12;;;-3.50;99.90;;;;;;7357019;32;20228;-55
2024/01/08 19:19:30;;;;;;;7.43;3.08;;;-3.50;99.90;;;;;;7361266;32;20216;-55
2024/01/08 19:23:32;;;;;;;6.70;3.62;;;-3.60;99.90;;;;;;7361464;32;20099;-57
2024/01/08 19:27:34;;;;;;;8.82;2.87;;;-3.60;99.90;;;;;;7356988;32;20126;-56
2024/01/08 19:31:42;;;;;;;8.52;3.30;;;-3.60;99.90;;;;;;7360410;32;20198;-56
2024/01/08 19:35:44;;;;;;;8.38;3.37;;;-3.60;99.90;;;;;;7365843;32;20115;-56
2024/01/08 19:39:46;;;;;;;6.93;3.50;;;-3.60;99.90;;;;;;7357411;32;20180;-56
2024/01/08 19:43:47;;;;;;;7.40;3.22;;;-3.70;99.90;;;;;;7367821;32;20659;-55
2024/01/08 19:47:49;;;;;;;6.10;2.75;;;-3.70;99.90;;;;;;7364641;32;20249;-55
2024/01/08 19:51:51;;;;;;;5.43;3.33;;;-3.70;99.90;;;;;;7358442;32;20205;-55
2024/01/08 19:55:53;;;;;;;12.20;4.72;;;-3.70;99.90;;;;;;7362025;32;20378;-56
2024/01/08 19:59:54;;;;;;;6.07;3.42;;;-3.70;99.90;;;;;;7364748;32;20111;-58
2024/01/08 20:03:56;;;;;;;15.52;3.60;;;-3.80;99.90;;;;;;7360831;32;20107;-57
2024/01/08 20:07:58;;;;;;;8.18;4.32;;;-3.80;99.90;;;;;;7358643;32;20507;-57
2024/01/08 20:12:04;;;;;;;6.30;3.33;;;-3.80;99.90;;;;;;7361850;32;20266;-57
2024/01/08 20:16:07;;;;;;;9.63;4.47;;;-3.80;99.90;;;;;;7364457;32;20126;-56
2024/01/08 20:20:09;;;;;;;8.30;3.45;;;-3.80;99.90;;;;;;7361009;32;20186;-55
2024/01/08 20:24:11;;;;;;;7.25;3.80;;;-3.80;99.90;;;;;;7360481;32;20212;-56
2024/01/08 20:28:13;;;;;;;6.93;3.70;;;-3.90;99.90;;;;;;7364970;32;20130;-56
2024/01/08 20:32:16;;;;;;;7.62;3.20;;;-3.90;99.90;;;;;;7362017;32;20224;-56
2024/01/08 20:36:18;;;;;;;9.27;4.32;;;-3.90;99.90;;;;;;7365365;32;20136;-55
2024/01/08 20:40:20;;;;;;;12.02;4.20;;;-3.90;99.90;;;;;;7357390;32;20171;-55
2024/01/08 20:44:22;;;;;;;7.07;3.62;;;-4.00;99.90;;;;;;7356082;32;20143;-55
2024/01/08 20:48:23;;;;;;;7.47;3.75;;;-4.00;99.90;;;;;;7353779;32;20175;-54
2024/01/08 20:52:25;;;;;;;7.40;3.78;;;-4.00;99.90;;;;;;7354561;32;20146;-55
2024/01/08 20:56:27;;;;;;;11.18;3.55;;;-3.90;99.90;;;;;;7358929;32;20148;-55
2024/01/08 21:00:29;;;;;;;7.68;3.97;;;-4.00;99.90;;;;;;7362664;32;20738;-55